createdAt,value
2024-03-07T00:02:20.108Z,101934.42
2024-03-07T00:04:50.636Z,101932.63
2024-03-07T00:07:22.122Z,101931.92
2024-03-07T00:09:54.951Z,101930.34
2024-03-07T00:12:25.482Z,101928.42
2024-03-07T00:14:56.290Z,101929.73
2024-03-07T00:17:27.014Z,101928.32
2024-03-07T00:19:57.466Z,101929.11
2024-03-07T00:22:30.910Z,101931.27
2024-03-07T00:25:01.622Z,101929.33
2024-03-07T00:27:32.207Z,101932.67
2024-03-07T00:30:03.699Z,101934.80
2024-03-07T00:32:37.137Z,101937.55
2024-03-07T00:35:10.337Z,101940.63
2024-03-07T00:37:40.977Z,101938.44
2024-03-07T00:40:13.321Z,101936.95
2024-03-07T00:42:44.224Z,101937.95
2024-03-07T00:45:14.924Z,101929.04
2024-03-07T00:47:45.583Z,101932.52
2024-03-07T00:50:16.488Z,101931.95
2024-03-07T00:52:47.084Z,101926.13
2024-03-07T00:55:17.779Z,101924.90
2024-03-07T00:57:48.235Z,101925.75
2024-03-07T01:00:22.689Z,101924.72
2024-03-07T01:02:54.535Z,101922.70
2024-03-07T01:05:25.287Z,101917.34
2024-03-07T01:07:56.955Z,101914.11
2024-03-07T01:10:27.606Z,101914.35
2024-03-07T01:13:02.250Z,101910.70
2024-03-07T01:15:33.986Z,101913.77
2024-03-07T01:18:05.060Z,101918.41
2024-03-07T01:20:36.763Z,101917.63
2024-03-07T01:23:08.885Z,101919.05
2024-03-07T01:25:40.161Z,101920.55
2024-03-07T01:28:13.488Z,101920.63
2024-03-07T01:30:43.805Z,101918.98
2024-03-07T01:33:14.369Z,101915.88
2024-03-07T01:35:45.265Z,101915.97
2024-03-07T01:38:15.938Z,101908.77
2024-03-07T01:40:47.401Z,101913.42
2024-03-07T01:43:18.046Z,101912.11
2024-03-07T01:45:49.541Z,101910.88
2024-03-07T01:48:27.745Z,101911.91
2024-03-07T01:50:59.112Z,101909.24
2024-03-07T01:53:31.127Z,101907.66
2024-03-07T01:56:03.726Z,101905.20
2024-03-07T01:58:35.315Z,101905.44
2024-03-07T02:01:06.071Z,101899.57
2024-03-07T02:03:37.882Z,101904.06
2024-03-07T02:06:08.846Z,101901.14
2024-03-07T02:08:39.263Z,101896.80
2024-03-07T02:11:10.771Z,101895.88
2024-03-07T02:13:41.365Z,101892.95
2024-03-07T02:16:11.768Z,101888.64
2024-03-07T02:18:42.510Z,101885.77
2024-03-07T02:21:12.939Z,101884.71
2024-03-07T02:23:43.383Z,101886.09
2024-03-07T02:26:14.240Z,101886.45
2024-03-07T02:28:45.136Z,101885.55
2024-03-07T02:31:15.509Z,101889.22
2024-03-07T02:33:46.028Z,101889.28
2024-03-07T02:36:16.748Z,101886.88
2024-03-07T02:38:47.257Z,101881.14
2024-03-07T02:41:17.786Z,101879.30
2024-03-07T02:43:48.507Z,101880.15
2024-03-07T02:46:19.020Z,101883.42
2024-03-07T02:48:49.685Z,101880.41
2024-03-07T02:51:20.170Z,101880.54
2024-03-07T02:53:51.039Z,101881.48
2024-03-07T02:56:21.561Z,101880.55
2024-03-07T02:58:52.459Z,101876.21
2024-03-07T03:01:23.149Z,101874.57
2024-03-07T03:03:53.849Z,101867.63
2024-03-07T03:06:24.271Z,101867.46
2024-03-07T03:08:55.377Z,101871.70
2024-03-07T03:11:26.951Z,101866.05
2024-03-07T03:13:57.577Z,101865.40
2024-03-07T03:16:43.041Z,101858.98
2024-03-07T03:19:18.248Z,101860.30
2024-03-07T03:21:48.665Z,101859.58
2024-03-07T03:24:19.133Z,101858.73
2024-03-07T03:26:49.637Z,101856.52
2024-03-07T03:29:20.431Z,101851.85
2024-03-07T03:31:50.916Z,101854.13
2024-03-07T03:34:22.183Z,101857.98
2024-03-07T03:36:52.599Z,101857.82
2024-03-07T03:39:23.063Z,101847.69
2024-03-07T03:41:53.563Z,101847.83
2024-03-07T03:44:24.038Z,101851.28
2024-03-07T03:46:54.516Z,101854.52
2024-03-07T03:49:25.028Z,101854.46
2024-03-07T03:51:55.923Z,101854.98
2024-03-07T03:54:26.359Z,101855.77
2024-03-07T03:56:56.802Z,101854.30
2024-03-07T03:59:27.220Z,101852.22
2024-03-07T04:01:57.605Z,101850.73
2024-03-07T04:04:28.422Z,101851.95
2024-03-07T04:06:58.748Z,101854.44
2024-03-07T04:09:29.688Z,101852.54
2024-03-07T04:12:00.666Z,101849.52
2024-03-07T04:14:34.556Z,101850.52
2024-03-07T04:17:04.982Z,101851.56
2024-03-07T04:19:35.355Z,101846.02
2024-03-07T04:22:06.289Z,101850.85
2024-03-07T04:24:36.907Z,101851.10
2024-03-07T04:27:08.375Z,101843.08
2024-03-07T04:29:38.844Z,101841.93
2024-03-07T04:32:10.364Z,101835.40
2024-03-07T04:34:40.726Z,101841.20
2024-03-07T04:37:11.162Z,101839.48
2024-03-07T04:39:41.663Z,101843.17
2024-03-07T04:42:12.221Z,101842.29
2024-03-07T04:44:42.664Z,101842.27
2024-03-07T04:47:13.272Z,101839.55
2024-03-07T04:49:44.791Z,101843.23
2024-03-07T04:52:15.710Z,101844.64
2024-03-07T04:54:46.107Z,101840.16
2024-03-07T04:57:16.540Z,101844.42
2024-03-07T04:59:46.942Z,101841.33
2024-03-07T05:02:17.408Z,101842.23
2024-03-07T05:04:50.800Z,101842.98
2024-03-07T05:07:21.299Z,101842.08
2024-03-07T05:09:51.635Z,101841.81
2024-03-07T05:12:21.987Z,101839.23
2024-03-07T05:14:52.415Z,101840.84
2024-03-07T05:17:23.276Z,101841.25
2024-03-07T05:19:53.697Z,101846.70
2024-03-07T05:22:26.864Z,101843.59
2024-03-07T05:24:58.100Z,101846.62
2024-03-07T05:27:31.234Z,101843.74
2024-03-07T05:30:01.680Z,101847.45
2024-03-07T05:32:32.589Z,101845.86
2024-03-07T05:35:03.394Z,101849.78
2024-03-07T05:37:34.068Z,101850.30
2024-03-07T05:40:05.365Z,101850.23
2024-03-07T05:42:35.914Z,101852.20
2024-03-07T05:45:09.084Z,101852.71
2024-03-07T05:47:39.722Z,101854.05
2024-03-07T05:50:11.911Z,101857.50
2024-03-07T05:52:42.377Z,101853.75
2024-03-07T05:55:13.382Z,101859.39
2024-03-07T05:57:45.677Z,101856.06
2024-03-07T06:00:28.779Z,101860.84
2024-03-07T06:02:59.955Z,101860.36
2024-03-07T06:05:30.473Z,101860.81
2024-03-07T06:08:01.023Z,101861.16
2024-03-07T06:10:31.453Z,101863.50
2024-03-07T06:13:10.363Z,101866.39
2024-03-07T06:15:44.813Z,101860.46
2024-03-07T06:18:15.862Z,101862.91
2024-03-07T06:20:47.176Z,101857.84
2024-03-07T06:23:18.351Z,101862.74
2024-03-07T06:25:51.660Z,101861.66
2024-03-07T06:28:22.115Z,101865.17
2024-03-07T06:30:52.693Z,101865.84
2024-03-07T06:33:25.944Z,101871.13
2024-03-07T06:35:58.089Z,101872.31
2024-03-07T06:38:28.904Z,101876.23
2024-03-07T06:40:59.578Z,101874.73
2024-03-07T06:43:30.584Z,101876.88
2024-03-07T06:46:01.026Z,101874.42
2024-03-07T06:48:31.480Z,101873.34
2024-03-07T06:51:02.230Z,101869.29
2024-03-07T06:53:32.892Z,101873.02
2024-03-07T06:56:03.384Z,101878.09
2024-03-07T06:58:34.196Z,101875.90
2024-03-07T07:01:08.396Z,101873.85
2024-03-07T07:03:39.159Z,101875.84
2024-03-07T07:06:09.641Z,101875.63
2024-03-07T07:08:40.583Z,101880.39
2024-03-07T07:11:13.484Z,101879.81
2024-03-07T07:13:44.229Z,101883.45
2024-03-07T07:16:14.562Z,101883.41
2024-03-07T07:18:44.982Z,101883.80
2024-03-07T07:21:16.980Z,101890.59
2024-03-07T07:23:47.541Z,101889.45
2024-03-07T07:26:17.984Z,101890.10
2024-03-07T07:28:48.396Z,101888.60
2024-03-07T07:31:18.693Z,101886.55
2024-03-07T07:33:49.029Z,101885.64
2024-03-07T07:36:20.018Z,101883.48
2024-03-07T07:38:50.423Z,101883.21
2024-03-07T07:41:20.840Z,101878.60
2024-03-07T07:43:51.795Z,101875.70
2024-03-07T07:46:22.187Z,101879.98
2024-03-07T07:48:52.545Z,101879.23
2024-03-07T07:51:22.988Z,101874.24
2024-03-07T07:53:55.407Z,101876.60
2024-03-07T07:56:29.718Z,101875.58
2024-03-07T07:59:00.254Z,101880.52
2024-03-07T08:01:30.688Z,101878.27
2024-03-07T08:04:01.113Z,101877.04
2024-03-07T08:06:32.287Z,101879.10
2024-03-07T08:09:02.896Z,101879.94
2024-03-07T08:11:33.775Z,101877.58
2024-03-07T08:14:04.381Z,101874.54
2024-03-07T08:16:34.855Z,101875.05
2024-03-07T08:19:05.473Z,101871.32
2024-03-07T08:21:35.872Z,101876.71
2024-03-07T08:24:11.954Z,101873.30
2024-03-07T08:26:45.564Z,101870.23
2024-03-07T08:29:15.993Z,101876.27
2024-03-07T08:31:46.344Z,101874.12
2024-03-07T08:34:16.712Z,101873.58
2024-03-07T08:36:48.348Z,101874.69
2024-03-07T08:39:20.547Z,101878.13
2024-03-07T08:41:50.986Z,101874.16
2024-03-07T08:44:21.618Z,101876.74
2024-03-07T08:46:52.186Z,101878.05
2024-03-07T08:49:23.657Z,101875.13
2024-03-07T08:51:54.083Z,101879.50
2024-03-07T08:54:24.843Z,101875.81
2024-03-07T08:56:55.572Z,101876.60
2024-03-07T08:59:26.151Z,101877.67
2024-03-07T09:01:56.659Z,101875.83
2024-03-07T09:04:27.185Z,101872.43
2024-03-07T09:06:57.875Z,101876.10
2024-03-07T09:09:28.285Z,101875.65
2024-03-07T09:11:58.834Z,101874.42
2024-03-07T09:14:29.372Z,101878.10
2024-03-07T09:17:00.087Z,101880.88
2024-03-07T09:19:30.592Z,101885.23
2024-03-07T09:22:01.429Z,101881.40
2024-03-07T09:24:32.427Z,101881.12
2024-03-07T09:27:03.627Z,101879.29
2024-03-07T09:29:34.595Z,101881.41
2024-03-07T09:32:09.212Z,101882.14
2024-03-07T09:34:40.198Z,101880.98
2024-03-07T09:37:11.506Z,101878.80
2024-03-07T09:39:41.974Z,101877.55
2024-03-07T09:42:14.279Z,101875.83
2024-03-07T09:44:47.918Z,101875.98
2024-03-07T09:47:19.743Z,101880.52
2024-03-07T09:49:50.454Z,101880.59
2024-03-07T09:52:22.142Z,101880.45
2024-03-07T09:54:52.476Z,101880.94
2024-03-07T09:57:24.884Z,101877.20
2024-03-07T09:59:57.331Z,101880.47
2024-03-07T10:02:28.901Z,101879.33
2024-03-07T10:05:00.887Z,101878.83
2024-03-07T10:07:32.632Z,101874.99
2024-03-07T10:10:11.041Z,101873.09
2024-03-07T10:12:42.066Z,101871.17
2024-03-07T10:15:14.980Z,101867.29
2024-03-07T10:17:47.799Z,101868.30
2024-03-07T10:20:24.126Z,101864.77
2024-03-07T10:22:55.520Z,101864.48
2024-03-07T10:25:28.498Z,101862.77
2024-03-07T10:28:00.375Z,101860.87
2024-03-07T10:30:30.948Z,101859.29
2024-03-07T10:33:03.080Z,101855.85
2024-03-07T10:35:33.956Z,101851.03
2024-03-07T10:38:08.475Z,101853.79
2024-03-07T10:40:42.453Z,101851.06
2024-03-07T10:43:16.113Z,101853.37
2024-03-07T10:45:49.067Z,101853.49
2024-03-07T10:48:25.344Z,101849.38
2024-03-07T10:51:07.269Z,101845.20
2024-03-07T10:53:43.925Z,101840.46
2024-03-07T10:56:26.681Z,101838.13
2024-03-07T10:59:10.445Z,101836.63
2024-03-07T11:01:51.409Z,101835.20
2024-03-07T11:04:23.193Z,101833.61
2024-03-07T11:06:55.080Z,101830.30
2024-03-07T11:09:30.057Z,101827.95
2024-03-07T11:12:04.686Z,101822.59
2024-03-07T11:14:38.284Z,101823.23
2024-03-07T11:17:10.691Z,101819.42
2024-03-07T11:19:41.183Z,101817.83
2024-03-07T11:22:16.960Z,101814.56
2024-03-07T11:25:02.096Z,101812.99
2024-03-07T11:27:34.153Z,101813.05
2024-03-07T11:30:12.849Z,101809.59
2024-03-07T11:32:45.883Z,101804.52
2024-03-07T11:35:16.869Z,101805.02
2024-03-07T11:37:50.345Z,101802.89
2024-03-07T11:40:47.968Z,101803.23
2024-03-07T11:43:16.945Z,101801.11
2024-03-07T11:45:53.386Z,101802.27
2024-03-07T11:48:25.168Z,101792.61
2024-03-07T11:50:57.525Z,101789.38
2024-03-07T11:53:28.912Z,101788.64
2024-03-07T11:55:59.396Z,101789.60
2024-03-07T11:58:33.159Z,101786.84
2024-03-07T12:01:06.799Z,101781.37
2024-03-07T12:03:37.251Z,101781.27
2024-03-07T12:06:11.029Z,101774.47
2024-03-07T12:08:43.279Z,101773.45
2024-03-07T12:11:17.006Z,101771.35
2024-03-07T12:13:48.729Z,101770.63
2024-03-07T12:16:19.303Z,101770.66
2024-03-07T12:18:50.293Z,101769.17
2024-03-07T12:21:22.172Z,101768.15
2024-03-07T12:23:52.953Z,101768.48
2024-03-07T12:26:26.722Z,101761.86
2024-03-07T12:28:58.526Z,101754.58
2024-03-07T12:31:28.944Z,101760.66
2024-03-07T12:33:59.714Z,101756.14
2024-03-07T12:36:35.756Z,101753.96
2024-03-07T12:39:20.408Z,101753.98
2024-03-07T12:41:53.962Z,101754.60
2024-03-07T12:44:24.828Z,101753.23
2024-03-07T12:46:57.076Z,101752.23
2024-03-07T12:49:28.434Z,101746.96
2024-03-07T12:52:00.386Z,101746.07
2024-03-07T12:54:31.110Z,101749.09
2024-03-07T12:57:01.750Z,101748.88
2024-03-07T12:59:32.393Z,101749.59
2024-03-07T13:02:03.947Z,101752.20
2024-03-07T13:04:34.594Z,101749.89
2024-03-07T13:07:05.469Z,101747.25
2024-03-07T13:09:36.367Z,101741.70
2024-03-07T13:12:10.723Z,101740.93
2024-03-07T13:14:41.522Z,101739.73
2024-03-07T13:17:15.349Z,101737.75
2024-03-07T13:19:50.980Z,101736.73
2024-03-07T13:22:21.392Z,101737.20
2024-03-07T13:24:51.849Z,101736.59
2024-03-07T13:27:29.215Z,101729.98
2024-03-07T13:29:59.822Z,101728.30
2024-03-07T13:32:30.610Z,101717.24
2024-03-07T13:35:02.629Z,101726.23
2024-03-07T13:37:35.606Z,101724.90
2024-03-07T13:40:24.176Z,101721.41
2024-03-07T13:42:57.103Z,101715.11
2024-03-07T13:45:29.623Z,101713.36
2024-03-07T13:48:01.145Z,101711.09
2024-03-07T13:50:47.280Z,101707.92
2024-03-07T13:53:34.413Z,101705.30
2024-03-07T13:56:31.458Z,101698.58
2024-03-07T13:59:32.915Z,101694.09
2024-03-07T14:02:24.765Z,101697.30
2024-03-07T14:05:26.299Z,101694.05
2024-03-07T14:08:24.898Z,101690.13
2024-03-07T14:11:43.169Z,101681.39
2024-03-07T14:14:38.345Z,101681.58
2024-03-07T14:17:59.544Z,101678.98
2024-03-07T14:21:18.254Z,101677.52
2024-03-07T14:24:18.488Z,101675.52
2024-03-07T14:27:20.485Z,101672.80
2024-03-07T14:30:00.961Z,101670.99
2024-03-07T14:32:32.305Z,101670.57
2024-03-07T14:35:12.150Z,101667.38
2024-03-07T14:37:52.009Z,101664.86
2024-03-07T14:40:25.926Z,101656.83
2024-03-07T14:43:00.605Z,101660.29
2024-03-07T14:45:36.023Z,101654.77
2024-03-07T14:48:10.957Z,101654.11
2024-03-07T14:50:44.116Z,101646.38
2024-03-07T14:53:18.025Z,101643.36
2024-03-07T14:55:49.032Z,101639.86
2024-03-07T14:58:21.162Z,101643.86
2024-03-07T15:00:57.916Z,101635.69
2024-03-07T15:03:30.924Z,101635.09
2024-03-07T15:06:03.969Z,101632.95
2024-03-07T15:08:34.844Z,101632.45
2024-03-07T15:11:14.922Z,101630.77
2024-03-07T15:13:46.992Z,101627.08
2024-03-07T15:16:29.209Z,101626.67
2024-03-07T15:19:04.026Z,101627.77
2024-03-07T15:21:34.510Z,101627.55
2024-03-07T15:24:06.158Z,101623.33
2024-03-07T15:26:36.920Z,101632.88
2024-03-07T15:29:08.207Z,101629.23
2024-03-07T15:31:38.567Z,101625.17
2024-03-07T15:34:10.689Z,101623.90
2024-03-07T15:36:42.298Z,101623.50
2024-03-07T15:39:21.452Z,101621.20
2024-03-07T15:41:52.209Z,101618.67
2024-03-07T15:44:22.659Z,101621.49
2024-03-07T15:46:53.047Z,101617.59
2024-03-07T15:49:23.392Z,101616.40
2024-03-07T15:51:53.905Z,101614.88
2024-03-07T15:54:25.031Z,101608.73
2024-03-07T15:56:55.438Z,101606.56
2024-03-07T15:59:25.822Z,101606.31
2024-03-07T16:01:56.143Z,101613.00
2024-03-07T16:04:26.473Z,101616.27
2024-03-07T16:06:56.991Z,101610.32
2024-03-07T16:09:27.540Z,101607.55
2024-03-07T16:11:58.775Z,101607.94
2024-03-07T16:14:29.363Z,101603.05
2024-03-07T16:16:59.759Z,101601.48
2024-03-07T16:19:30.192Z,101600.45
2024-03-07T16:22:03.442Z,101600.23
2024-03-07T16:24:37.593Z,101598.28
2024-03-07T16:27:08.608Z,101597.61
2024-03-07T16:29:39.536Z,101600.88
2024-03-07T16:32:12.956Z,101601.73
2024-03-07T16:34:44.092Z,101601.08
2024-03-07T16:37:15.062Z,101601.08
2024-03-07T16:39:45.902Z,101599.06
2024-03-07T16:42:16.767Z,101595.46
2024-03-07T16:44:47.099Z,101597.71
2024-03-07T16:47:17.698Z,101596.92
2024-03-07T16:49:50.398Z,101601.41
2024-03-07T16:52:20.879Z,101599.38
2024-03-07T16:54:51.745Z,101599.26
2024-03-07T16:57:22.144Z,101598.55
2024-03-07T16:59:52.597Z,101602.40
2024-03-07T17:02:27.296Z,101601.91
2024-03-07T17:04:59.230Z,101601.20
2024-03-07T17:07:31.618Z,101604.13
2024-03-07T17:10:02.432Z,101606.35
2024-03-07T17:12:32.847Z,101606.41
2024-03-07T17:15:03.340Z,101612.16
2024-03-07T17:17:40.312Z,101612.20
2024-03-07T17:20:12.475Z,101612.96
2024-03-07T17:22:43.140Z,101612.77
2024-03-07T17:25:17.437Z,101611.41
2024-03-07T17:27:50.772Z,101609.92
2024-03-07T17:30:22.906Z,101606.46
2024-03-07T17:32:53.410Z,101609.58
2024-03-07T17:35:23.939Z,101607.22
2024-03-07T17:37:54.780Z,101616.13
2024-03-07T17:40:27.836Z,101611.02
2024-03-07T17:43:00.351Z,101613.08
2024-03-07T17:45:36.424Z,101614.60
2024-03-07T17:48:11.642Z,101612.40
2024-03-07T17:50:43.535Z,101615.42
2024-03-07T17:53:15.096Z,101611.00
2024-03-07T17:55:46.371Z,101613.04
2024-03-07T17:58:21.110Z,101609.01
2024-03-07T18:00:51.943Z,101615.73
2024-03-07T18:03:23.352Z,101616.36
2024-03-07T18:05:54.628Z,101616.27
2024-03-07T18:08:35.935Z,101611.27
2024-03-07T18:11:14.780Z,101610.45
2024-03-07T18:13:47.749Z,101613.09
2024-03-07T18:16:18.716Z,101615.66
2024-03-07T18:18:54.285Z,101614.02
2024-03-07T18:21:24.728Z,101611.27
2024-03-07T18:23:57.537Z,101612.27
2024-03-07T18:26:28.068Z,101612.69
2024-03-07T18:28:58.791Z,101605.64
2024-03-07T18:31:31.297Z,101606.02
2024-03-07T18:34:02.960Z,101603.97
2024-03-07T18:36:37.252Z,101606.94
2024-03-07T18:39:24.055Z,101603.02
2024-03-07T18:41:58.178Z,101603.61
2024-03-07T18:44:31.631Z,101606.22
2024-03-07T18:47:06.946Z,101604.54
2024-03-07T18:49:39.694Z,101602.89
2024-03-07T18:52:12.261Z,101603.81
2024-03-07T18:54:43.104Z,101604.27
2024-03-07T18:57:13.569Z,101599.92
2024-03-07T18:59:46.506Z,101600.27
2024-03-07T19:02:16.999Z,101604.13
2024-03-07T19:04:47.309Z,101603.74
2024-03-07T19:07:17.705Z,101602.98
2024-03-07T19:09:48.100Z,101606.98
2024-03-07T19:12:18.555Z,101606.02
2024-03-07T19:15:00.869Z,101603.35
2024-03-07T19:17:31.823Z,101608.45
2024-03-07T19:20:12.333Z,101607.69
2024-03-07T19:22:42.619Z,101610.88
2024-03-07T19:25:18.529Z,101609.77
2024-03-07T19:27:50.427Z,101611.14
2024-03-07T19:30:24.594Z,101612.98
2024-03-07T19:32:56.464Z,101613.23
2024-03-07T19:35:27.000Z,101611.48
2024-03-07T19:37:57.517Z,101617.77
2024-03-07T19:40:27.936Z,101615.14
2024-03-07T19:42:58.344Z,101611.30
2024-03-07T19:45:28.740Z,101612.15
2024-03-07T19:48:00.871Z,101612.63
2024-03-07T19:50:32.756Z,101611.50
2024-03-07T19:53:03.191Z,101609.32
2024-03-07T19:55:33.481Z,101608.89
2024-03-07T19:58:03.985Z,101614.17
2024-03-07T20:00:34.324Z,101612.88
2024-03-07T20:03:08.127Z,101610.11
2024-03-07T20:05:38.674Z,101605.70
2024-03-07T20:08:15.497Z,101609.22
2024-03-07T20:10:49.209Z,101602.44
2024-03-07T20:13:20.730Z,101600.34
2024-03-07T20:15:51.400Z,101600.11
2024-03-07T20:18:25.200Z,101597.37
2024-03-07T20:20:56.426Z,101595.02
2024-03-07T20:23:28.690Z,101589.07
2024-03-07T20:26:00.059Z,101591.57
2024-03-07T20:28:30.424Z,101589.14
2024-03-07T20:31:01.710Z,101589.34
2024-03-07T20:33:32.206Z,101587.45
2024-03-07T20:36:03.991Z,101585.48
2024-03-07T20:38:36.030Z,101586.36
2024-03-07T20:41:07.022Z,101587.27
2024-03-07T20:43:38.043Z,101584.14
2024-03-07T20:46:08.591Z,101582.10
2024-03-07T20:48:39.103Z,101590.11
2024-03-07T20:51:11.665Z,101590.48
2024-03-07T20:53:48.020Z,101587.32
2024-03-07T20:56:18.630Z,101587.11
2024-03-07T20:58:49.256Z,101587.75
2024-03-07T21:01:21.492Z,101587.73
2024-03-07T21:03:55.509Z,101587.80
2024-03-07T21:06:28.507Z,101586.38
2024-03-07T21:08:58.945Z,101587.65
2024-03-07T21:11:30.702Z,101587.35
2024-03-07T21:14:01.375Z,101588.24
2024-03-07T21:16:31.735Z,101586.58
2024-03-07T21:19:02.451Z,101591.29
2024-03-07T21:21:34.421Z,101591.73
2024-03-07T21:24:05.899Z,101592.33
2024-03-07T21:26:36.361Z,101589.55
2024-03-07T21:29:06.694Z,101592.89
2024-03-07T21:31:36.987Z,101590.70
2024-03-07T21:34:08.054Z,101592.75
2024-03-07T21:36:40.768Z,101586.97
2024-03-07T21:39:11.372Z,101587.90
2024-03-07T21:41:44.308Z,101588.88
2024-03-07T21:44:15.136Z,101591.79
2024-03-07T21:46:45.740Z,101588.62
2024-03-07T21:49:16.256Z,101585.23
2024-03-07T21:51:51.555Z,101585.57
2024-03-07T21:54:23.505Z,101582.84
2024-03-07T21:56:53.976Z,101584.84
2024-03-07T21:59:24.501Z,101583.80
2024-03-07T22:01:55.072Z,101581.63
2024-03-07T22:04:25.667Z,101581.45
2024-03-07T22:06:56.088Z,101578.98
2024-03-07T22:09:27.640Z,101579.70
2024-03-07T22:11:59.107Z,101573.90
2024-03-07T22:14:30.746Z,101575.66
2024-03-07T22:17:05.907Z,101571.67
2024-03-07T22:19:38.807Z,101572.80
2024-03-07T22:22:09.139Z,101570.20
2024-03-07T22:24:39.771Z,101571.80
2024-03-07T22:27:11.234Z,101570.20
2024-03-07T22:29:42.148Z,101571.29
2024-03-07T22:32:12.765Z,101568.66
2024-03-07T22:34:43.784Z,101568.80
2024-03-07T22:37:14.915Z,101566.28
2024-03-07T22:39:48.788Z,101561.62
2024-03-07T22:42:19.183Z,101565.73
2024-03-07T22:44:49.541Z,101563.61
2024-03-07T22:47:22.739Z,101560.22
2024-03-07T22:49:56.246Z,101556.43
2024-03-07T22:52:30.322Z,101551.09
2024-03-07T22:55:00.746Z,101549.19
2024-03-07T22:57:31.167Z,101545.67
2024-03-07T23:00:01.735Z,101543.19
2024-03-07T23:02:32.654Z,101541.75
2024-03-07T23:05:05.419Z,101542.62
2024-03-07T23:07:35.763Z,101539.11
2024-03-07T23:10:07.678Z,101536.02
2024-03-07T23:12:39.091Z,101537.78
2024-03-07T23:15:11.594Z,101535.44
2024-03-07T23:17:45.467Z,101533.88
2024-03-07T23:20:20.988Z,101532.16
2024-03-07T23:22:53.173Z,101530.71
2024-03-07T23:25:24.643Z,101530.15
2024-03-07T23:27:56.519Z,101529.80
2024-03-07T23:30:28.460Z,101528.70
2024-03-07T23:33:00.173Z,101528.72
2024-03-07T23:35:30.786Z,101527.44
2024-03-07T23:38:01.492Z,101524.17
2024-03-07T23:40:31.873Z,101522.40
2024-03-07T23:43:02.376Z,101519.80
2024-03-07T23:45:32.855Z,101523.23
2024-03-07T23:48:04.934Z,101522.59
2024-03-07T23:50:35.548Z,101524.16
2024-03-07T23:53:07.855Z,101522.10
2024-03-07T23:55:38.561Z,101521.08
2024-03-07T23:58:08.927Z,101519.02
